createdAt,value
2023-04-22T00:03:42.292Z,6.75
2023-04-22T00:08:44.340Z,6.30
2023-04-22T00:13:46.251Z,6.78
2023-04-22T00:18:48.788Z,6.03
2023-04-22T00:23:50.560Z,7.20
2023-04-22T00:28:52.265Z,6.80
2023-04-22T00:33:53.998Z,6.28
2023-04-22T00:38:55.638Z,6.70
2023-04-22T00:43:57.448Z,6.38
2023-04-22T00:48:59.999Z,6.25
2023-04-22T00:54:06.006Z,6.05
2023-04-22T00:59:09.373Z,5.72
2023-04-22T01:04:14.357Z,6.07
2023-04-22T01:09:16.275Z,6.70
2023-04-22T01:14:18.094Z,6.72
2023-04-22T01:19:20.083Z,7.13
2023-04-22T01:24:22.210Z,7.00
2023-04-22T01:29:24.656Z,6.32
2023-04-22T01:34:26.910Z,6.85
2023-04-22T01:39:30.253Z,7.80
2023-04-22T01:44:31.852Z,7.45
2023-04-22T01:49:33.760Z,7.47
2023-04-22T01:54:35.751Z,6.82
2023-04-22T01:59:38.308Z,7.28
2023-04-22T02:04:40.071Z,6.18
2023-04-22T02:09:42.034Z,7.38
2023-04-22T02:14:43.856Z,6.68
2023-04-22T02:19:45.607Z,6.22
2023-04-22T02:24:47.378Z,6.78
2023-04-22T02:29:49.587Z,6.82
2023-04-22T02:34:52.402Z,6.00
2023-04-22T02:39:55.758Z,5.47
2023-04-22T02:44:57.363Z,6.00
2023-04-22T02:49:58.976Z,6.00
2023-04-22T02:55:01.201Z,6.55
2023-04-22T03:00:04.447Z,8.05
2023-04-22T03:05:07.000Z,6.93
2023-04-22T03:10:09.551Z,6.18
2023-04-22T03:15:11.921Z,7.15
2023-04-22T03:20:13.671Z,6.55
2023-04-22T03:25:17.438Z,6.35
2023-04-22T03:30:25.307Z,7.13
2023-04-22T03:35:28.025Z,7.13
2023-04-22T03:40:33.512Z,7.07
2023-04-22T03:45:38.934Z,7.65
2023-04-22T03:51:02.870Z,7.18
2023-04-22T03:56:10.366Z,7.82
2023-04-22T04:01:18.289Z,7.13
2023-04-22T04:06:25.212Z,6.95
2023-04-22T04:11:26.906Z,8.25
2023-04-22T04:16:30.561Z,7.38
2023-04-22T04:21:39.724Z,7.85
2023-04-22T04:26:42.567Z,7.07
2023-04-22T04:31:50.483Z,7.40
2023-04-22T04:36:52.501Z,7.65
2023-04-22T04:42:00.803Z,7.88
2023-04-22T04:47:05.337Z,7.32
2023-04-22T04:52:11.969Z,13.43
2023-04-22T04:57:14.124Z,12.63
2023-04-22T05:02:16.234Z,10.00
2023-04-22T05:07:18.160Z,12.68
2023-04-22T05:12:21.169Z,6.85
2023-04-22T05:17:23.118Z,7.63
2023-04-22T05:22:25.052Z,10.48
2023-04-22T05:27:28.544Z,11.45
2023-04-22T05:32:30.651Z,7.45
2023-04-22T05:37:32.630Z,6.60
2023-04-22T05:42:35.469Z,6.50
2023-04-22T05:47:37.224Z,7.43
2023-04-22T05:52:40.044Z,7.45
2023-04-22T05:57:47.436Z,8.40
2023-04-22T06:03:09.262Z,7.47
2023-04-22T06:08:11.310Z,7.95
2023-04-22T06:13:12.986Z,7.78
2023-04-22T06:18:14.612Z,7.18
2023-04-22T06:23:16.477Z,8.02
2023-04-22T06:28:18.182Z,8.77
2023-04-22T06:33:22.114Z,9.27
2023-04-22T06:38:25.056Z,8.82
2023-04-22T06:43:46.300Z,9.40
2023-04-22T06:48:53.884Z,7.03
2023-04-22T06:54:16.036Z,8.38
2023-04-22T06:59:17.945Z,8.98
2023-04-22T07:04:22.068Z,8.93
2023-04-22T07:09:24.644Z,8.93
2023-04-22T07:14:29.637Z,8.70
2023-04-22T07:19:33.216Z,6.93
2023-04-22T07:24:36.383Z,6.97
2023-04-22T07:29:38.360Z,6.70
2023-04-22T07:34:40.386Z,6.53
2023-04-22T07:39:42.332Z,6.78
2023-04-22T07:44:44.088Z,6.57
2023-04-22T07:49:45.719Z,6.03
2023-04-22T07:54:47.332Z,6.38
2023-04-22T07:59:49.899Z,5.38
2023-04-22T08:04:52.078Z,5.65
2023-04-22T08:09:55.998Z,6.00
2023-04-22T08:14:58.936Z,6.75
2023-04-22T08:20:00.691Z,5.07
2023-04-22T08:25:02.984Z,6.25
2023-04-22T08:30:06.721Z,6.45
2023-04-22T08:35:08.780Z,5.30
2023-04-22T08:40:10.730Z,4.18
2023-04-22T08:45:13.827Z,3.67
2023-04-22T08:50:15.820Z,4.00
2023-04-22T08:55:17.607Z,4.28
2023-04-22T09:00:19.489Z,4.07
2023-04-22T09:05:24.371Z,4.53
2023-04-22T09:10:28.441Z,4.40
2023-04-22T09:15:30.313Z,3.85
2023-04-22T09:20:31.979Z,3.58
2023-04-22T09:25:36.895Z,4.22
2023-04-22T09:30:38.751Z,3.53
2023-04-22T09:35:41.995Z,3.13
2023-04-22T09:40:44.702Z,2.80
2023-04-22T09:45:46.479Z,2.90
2023-04-22T09:50:51.309Z,2.67
2023-04-22T09:55:54.787Z,2.78
2023-04-22T10:00:59.001Z,2.25
2023-04-22T10:06:00.860Z,2.20
2023-04-22T10:11:02.845Z,2.40
2023-04-22T10:16:04.982Z,2.30
2023-04-22T10:21:07.394Z,2.13
2023-04-22T10:26:09.464Z,2.05
2023-04-22T10:31:23.953Z,1.98
2023-04-22T10:36:26.069Z,1.90
2023-04-22T10:41:34.625Z,1.98
2023-04-22T10:46:40.190Z,2.00
2023-04-22T10:51:43.145Z,1.80
2023-04-22T10:57:07.743Z,2.15
2023-04-22T11:02:11.981Z,2.00
2023-04-22T11:07:26.563Z,1.90
2023-04-22T11:12:42.795Z,2.40
2023-04-22T11:17:46.471Z,2.10
2023-04-22T11:22:51.391Z,2.10
2023-04-22T11:27:55.079Z,2.10
2023-04-22T11:32:59.785Z,1.98
2023-04-22T11:38:06.181Z,1.88
2023-04-22T11:43:09.767Z,2.38
2023-04-22T11:48:11.914Z,1.83
2023-04-22T11:53:18.949Z,1.90
2023-04-22T11:58:27.080Z,1.80
2023-04-22T12:03:30.624Z,2.00
2023-04-22T12:08:41.950Z,1.80
2023-04-22T12:13:46.367Z,1.95
2023-04-22T12:18:49.011Z,1.50
2023-04-22T12:24:08.587Z,2.15
2023-04-22T12:29:10.806Z,1.70
2023-04-22T12:34:12.628Z,1.83
2023-04-22T12:39:15.272Z,2.10
2023-04-22T12:44:17.638Z,1.60
2023-04-22T12:49:19.273Z,1.60
2023-04-22T12:54:21.470Z,1.27
2023-04-22T12:59:23.232Z,1.70
2023-04-22T13:04:25.014Z,2.40
2023-04-22T13:09:27.087Z,1.50
2023-04-22T13:14:28.729Z,1.98
2023-04-22T13:19:31.842Z,1.58
2023-04-22T13:24:33.461Z,1.70
2023-04-22T13:29:35.411Z,1.40
2023-04-22T13:34:38.215Z,1.80
2023-04-22T13:39:40.200Z,1.30
2023-04-22T13:44:42.009Z,1.83
2023-04-22T13:49:43.596Z,1.83
2023-04-22T13:54:46.049Z,2.17
2023-04-22T13:59:49.753Z,1.70
2023-04-22T14:04:51.353Z,1.88
2023-04-22T14:09:52.948Z,1.95
2023-04-22T14:14:54.529Z,1.90
2023-04-22T14:19:56.122Z,1.98
2023-04-22T14:24:57.907Z,1.67
2023-04-22T14:29:59.627Z,1.45
2023-04-22T14:35:01.439Z,1.75
2023-04-22T14:40:04.239Z,1.92
2023-04-22T14:45:06.314Z,1.80
2023-04-22T14:50:08.194Z,1.52
2023-04-22T14:55:21.922Z,1.75
2023-04-22T15:00:25.506Z,1.55
2023-04-22T15:05:27.416Z,1.70
2023-04-22T15:10:29.041Z,1.63
2023-04-22T15:15:30.705Z,1.80
2023-04-22T15:20:32.857Z,1.77
2023-04-22T15:25:35.667Z,1.70
2023-04-22T15:30:37.455Z,1.80
2023-04-22T15:35:39.130Z,2.05
2023-04-22T15:40:40.813Z,2.03
2023-04-22T15:45:42.492Z,1.88
2023-04-22T15:50:44.416Z,1.73
2023-04-22T15:55:47.428Z,1.50
2023-04-22T16:00:50.367Z,1.70
2023-04-22T16:05:52.122Z,1.50
2023-04-22T16:10:53.731Z,1.48
2023-04-22T16:15:55.392Z,1.60
2023-04-22T16:20:59.783Z,1.60
2023-04-22T16:26:02.768Z,1.65
2023-04-22T16:31:04.471Z,1.75
2023-04-22T16:36:08.612Z,1.67
2023-04-22T16:41:11.668Z,1.85
2023-04-22T16:46:13.883Z,2.00
2023-04-22T16:51:15.743Z,1.75
2023-04-22T16:56:17.424Z,1.70
2023-04-22T17:01:19.206Z,1.83
2023-04-22T17:06:21.614Z,1.75
2023-04-22T17:11:24.004Z,1.88
2023-04-22T17:16:25.728Z,2.42
2023-04-22T17:21:28.032Z,1.95
2023-04-22T17:26:29.703Z,1.95
2023-04-22T17:31:32.234Z,1.90
2023-04-22T17:36:34.048Z,2.20
2023-04-22T17:41:36.077Z,2.00
2023-04-22T17:46:37.802Z,2.28
2023-04-22T17:51:40.119Z,1.90
2023-04-22T17:56:42.079Z,1.92
2023-04-22T18:01:44.398Z,2.28
2023-04-22T18:06:46.049Z,2.00
2023-04-22T18:11:47.682Z,2.33
2023-04-22T18:16:49.720Z,2.17
2023-04-22T18:21:59.605Z,3.13
2023-04-22T18:27:02.842Z,2.53
2023-04-22T18:32:04.752Z,2.55
2023-04-22T18:37:07.304Z,2.70
2023-04-22T18:42:09.081Z,2.40
2023-04-22T18:47:10.785Z,2.78
2023-04-22T18:52:12.512Z,2.20
2023-04-22T18:57:14.121Z,2.72
2023-04-22T19:02:16.289Z,2.50
2023-04-22T19:07:17.867Z,2.53
2023-04-22T19:12:19.792Z,2.55
2023-04-22T19:17:21.468Z,3.03
2023-04-22T19:22:23.375Z,2.80
2023-04-22T19:27:25.781Z,3.10
2023-04-22T19:32:27.511Z,2.63
2023-04-22T19:37:29.132Z,2.97
2023-04-22T19:42:30.763Z,2.78
2023-04-22T19:47:32.561Z,2.70
2023-04-22T19:52:36.201Z,3.00
2023-04-22T19:57:41.943Z,2.88
2023-04-22T20:02:44.024Z,3.10
2023-04-22T20:07:47.219Z,2.80
2023-04-22T20:12:49.442Z,3.65
2023-04-22T20:17:51.723Z,2.95
2023-04-22T20:22:54.718Z,2.88
2023-04-22T20:27:56.641Z,3.35
2023-04-22T20:32:58.327Z,2.83
2023-04-22T20:38:00.904Z,2.63
2023-04-22T20:43:03.366Z,3.63
2023-04-22T20:48:05.219Z,3.42
2023-04-22T20:53:07.084Z,3.55
2023-04-22T20:58:09.208Z,3.05
2023-04-22T21:03:14.705Z,3.63
2023-04-22T21:08:25.336Z,3.35
2023-04-22T21:13:28.869Z,3.65
2023-04-22T21:18:32.875Z,4.05
2023-04-22T21:23:34.761Z,3.85
2023-04-22T21:28:37.296Z,3.40
2023-04-22T21:33:38.940Z,3.35
2023-04-22T21:38:40.694Z,3.65
2023-04-22T21:43:42.366Z,3.58
2023-04-22T21:48:44.057Z,3.30
2023-04-22T21:53:45.728Z,2.90
2023-04-22T21:58:47.569Z,3.50
2023-04-22T22:03:49.292Z,4.03
2023-04-22T22:08:50.957Z,3.88
2023-04-22T22:13:52.597Z,3.22
2023-04-22T22:18:55.707Z,3.15
2023-04-22T22:23:57.880Z,3.30
2023-04-22T22:28:59.829Z,4.30
2023-04-22T22:34:01.445Z,3.50
2023-04-22T22:39:04.779Z,3.95
2023-04-22T22:44:06.391Z,3.50
2023-04-22T22:49:09.184Z,3.72
2023-04-22T22:54:10.812Z,3.50
2023-04-22T22:59:12.407Z,3.33
2023-04-22T23:04:15.705Z,4.70
2023-04-22T23:09:19.072Z,3.95
2023-04-22T23:14:22.206Z,4.38
2023-04-22T23:19:24.787Z,4.47
2023-04-22T23:24:26.667Z,4.22
2023-04-22T23:29:28.696Z,4.53
2023-04-22T23:34:31.845Z,4.00
2023-04-22T23:39:33.591Z,4.05
2023-04-22T23:44:35.841Z,3.88
2023-04-22T23:49:37.558Z,4.13
2023-04-22T23:54:40.281Z,4.85
2023-04-22T23:59:42.392Z,4.03
